Time;durP1;ratioP1;P1;durP2;ratioP2;P2;SDS_P1;SDS_P2;PMS_P1;PMS_P2;Temp;Humidity;BMP_temperature;BMP_pressure;BME280_temperature;BME280_humidity;BME280_pressure;Samples;Min_cycle;Max_cycle;Signal;HPM_P1;HPM_P2
2022/12/17 13:08:15;;;;;;;23.53;10.23;;;6.00;80.20;;;;;;5004658;28;20898;-60
2022/12/17 13:10:42;;;;;;;34.90;14.60;;;6.20;80.40;;;;;;4989611;28;20484;-60
2022/12/17 13:13:15;;;;;;;33.33;13.93;;;6.20;79.00;;;;;;5005027;28;21045;-60
2022/12/17 13:15:46;;;;;;;31.77;14.33;;;6.20;79.10;;;;;;5006255;28;20502;-60
2022/12/17 13:18:24;;;;;;;16.63;8.43;;;6.30;79.30;;;;;;5016730;28;20485;-60
2022/12/17 13:21:02;;;;;;;18.33;9.60;;;6.40;78.90;;;;;;5003714;28;20591;-60
2022/12/17 13:23:33;;;;;;;22.73;9.27;;;6.10;77.90;;;;;;4991552;28;20491;-60
2022/12/17 13:26:23;;;;;;;21.87;9.03;;;5.90;77.50;;;;;;5023169;28;20520;-60
2022/12/17 13:29:01;;;;;;;21.93;8.80;;;5.80;77.90;;;;;;5020674;28;20487;-61
2022/12/17 13:31:30;;;;;;;25.90;8.97;;;5.70;77.80;;;;;;5012444;28;20483;-61
2022/12/17 13:34:08;;;;;;;17.40;8.00;;;5.60;78.90;;;;;;5005214;28;20502;-60
2022/12/17 13:36:48;;;;;;;29.30;12.67;;;5.60;78.30;;;;;;4993698;28;21567;-60
2022/12/17 13:39:37;;;;;;;21.40;8.87;;;5.60;78.60;;;;;;5015919;28;20476;-60
2022/12/17 13:42:04;;;;;;;24.00;9.40;;;5.50;77.60;;;;;;5005922;28;20471;-61
2022/12/17 13:44:38;;;;;;;24.00;10.63;;;5.40;78.40;;;;;;5035791;28;20490;-60
2022/12/17 13:47:06;;;;;;;20.37;7.97;;;5.30;78.10;;;;;;5015622;28;20477;-60
2022/12/17 13:49:34;;;;;;;35.70;13.20;;;5.40;78.70;;;;;;5012002;28;20473;-60
2022/12/17 13:52:02;;;;;;;23.93;7.93;;;5.50;78.90;;;;;;5021533;28;20900;-60
2022/12/17 13:54:29;;;;;;;20.20;7.97;;;5.40;77.70;;;;;;5018091;28;20499;-60
2022/12/17 13:57:07;;;;;;;19.57;9.23;;;5.30;78.30;;;;;;5005788;28;20817;-60
2022/12/17 13:59:34;;;;;;;19.93;10.03;;;;;;;;;;5040144;28;20897;-60
2022/12/17 14:02:00;;;;;;;21.17;7.97;;;5.10;78.40;;;;;;5033458;28;20481;-60
2022/12/17 14:04:29;;;;;;;26.60;9.60;;;5.10;78.40;;;;;;5025879;28;20467;-60
2022/12/17 14:06:59;;;;;;;20.83;8.60;;;5.10;78.60;;;;;;5006518;28;20484;-60
2022/12/17 14:09:33;;;;;;;24.50;9.27;;;5.00;78.30;;;;;;5001298;28;20476;-60
2022/12/17 14:14:49;;;;;;;28.10;11.17;;;4.90;78.50;;;;;;5006489;28;20479;-60
2022/12/17 14:17:18;;;;;;;34.67;8.50;;;5.00;79.30;;;;;;5015389;28;20588;-61
2022/12/17 14:19:46;;;;;;;46.37;15.40;;;5.10;79.90;;;;;;5006594;28;21426;-60
2022/12/17 14:22:19;;;;;;;16.67;7.70;;;5.30;79.80;;;;;;5007724;28;20476;-61
2022/12/17 14:24:46;;;;;;;34.90;12.53;;;5.30;78.50;;;;;;5000532;28;20504;-61
2022/12/17 14:27:25;;;;;;;17.13;8.23;;;5.40;78.80;;;;;;5006679;28;20487;-61
2022/12/17 14:29:52;;;;;;;62.87;22.13;;;5.40;78.50;;;;;;5033003;28;20526;-61
2022/12/17 14:32:25;;;;;;;16.33;8.87;;;5.30;77.70;;;;;;5016208;28;20502;-61
2022/12/17 14:34:52;;;;;;;25.80;11.67;;;5.20;78.20;;;;;;5029305;28;20929;-61
2022/12/17 14:37:24;;;;;;;23.37;10.20;;;5.10;78.30;;;;;;5013617;28;20485;-61
2022/12/17 14:39:54;;;;;;;33.87;13.57;;;5.20;79.10;;;;;;4988806;28;20481;-61
2022/12/17 14:42:25;;;;;;;18.43;9.37;;;5.20;78.90;;;;;;5018027;28;21196;-61
2022/12/17 14:44:54;;;;;;;28.93;11.50;;;5.20;78.20;;;;;;5009664;28;20480;-61
2022/12/17 14:47:23;;;;;;;23.43;10.53;;;5.20;78.70;;;;;;5025089;28;20542;-61
2022/12/17 14:49:57;;;;;;;33.83;13.00;;;5.20;78.30;;;;;;5036490;28;20496;-61
2022/12/17 14:52:36;;;;;;;22.43;8.73;;;5.20;78.80;;;;;;4993142;28;21005;-61
2022/12/17 14:55:21;;;;;;;35.47;12.27;;;5.10;78.70;;;;;;5030539;28;20489;-61
2022/12/17 14:57:48;;;;;;;29.23;11.53;;;5.20;79.20;;;;;;4999665;28;20566;-60
2022/12/17 15:00:16;;;;;;;29.43;9.97;;;5.10;78.90;;;;;;5028311;28;20484;-60
2022/12/17 15:02:43;;;;;;;61.77;17.70;;;5.10;78.70;;;;;;4999990;28;20978;-60
2022/12/17 15:05:14;;;;;;;28.03;11.30;;;5.00;79.00;;;;;;5024732;28;20481;-60
2022/12/17 15:07:42;;;;;;;33.33;12.80;;;4.90;77.90;;;;;;5030401;28;20480;-60
2022/12/17 15:10:10;;;;;;;35.17;12.77;;;7.50;80.60;;;;;;5046142;28;20482;-60
2022/12/17 15:12:37;;;;;;;51.67;15.33;;;4.40;77.40;;;;;;5012763;28;22104;-60
2022/12/17 15:15:04;;;;;;;37.33;12.77;;;4.10;77.40;;;;;;5004205;28;21120;-60
2022/12/17 15:17:31;;;;;;;41.90;14.13;;;4.50;78.70;;;;;;5005216;28;20488;-60
2022/12/17 15:19:58;;;;;;;41.37;13.30;;;3.70;79.00;;;;;;5007900;28;20474;-60
2022/12/17 15:22:24;;;;;;;28.97;9.30;;;3.50;78.70;;;;;;5004698;28;20508;-60
2022/12/17 15:24:53;;;;;;;32.17;10.77;;;3.30;78.70;;;;;;5004060;28;20870;-60
2022/12/17 15:27:20;;;;;;;37.63;13.63;;;;;;;;;;5018668;28;20501;-60
2022/12/17 15:29:46;;;;;;;40.70;16.17;;;3.00;79.40;;;;;;5000294;28;21024;-60
2022/12/17 15:32:18;;;;;;;32.97;12.53;;;2.90;80.10;;;;;;5019114;28;20487;-60
2022/12/17 15:34:45;;;;;;;47.87;15.53;;;2.80;80.20;;;;;;5016550;28;20463;-60
2022/12/17 15:37:13;;;;;;;37.67;13.43;;;2.80;80.60;;;;;;5027477;28;20491;-61
2022/12/17 15:39:39;;;;;;;61.57;18.63;;;2.60;80.20;;;;;;5006930;28;20499;-60
2022/12/17 15:44:53;;;;;;;40.30;11.40;;;2.20;80.40;;;;;;5032671;28;20487;-60
2022/12/17 15:47:20;;;;;;;29.73;12.10;;;2.10;81.00;;;;;;5014035;28;20508;-60
2022/12/17 15:49:47;;;;;;;53.00;15.40;;;;;;;;;;4992013;28;20480;-60
2022/12/17 15:52:14;;;;;;;35.37;11.80;;;1.70;81.00;;;;;;5008934;28;20655;-60
2022/12/17 15:54:41;;;;;;;56.63;15.40;;;1.60;80.90;;;;;;5017274;28;20814;-60
2022/12/17 15:57:09;;;;;;;36.57;11.90;;;1.50;81.10;;;;;;5009184;28;20659;-60
2022/12/17 15:59:36;;;;;;;58.80;16.50;;;1.40;80.60;;;;;;5004680;28;20488;-60
2022/12/17 16:02:03;;;;;;;38.70;12.30;;;1.20;80.10;;;;;;5034715;28;20994;-60
2022/12/17 16:04:29;;;;;;;27.10;9.87;;;0.90;80.70;;;;;;4997688;28;21145;-59
2022/12/17 16:06:56;;;;;;;34.43;11.57;;;0.70;81.40;;;;;;5022667;28;20487;-60
2022/12/17 16:09:25;;;;;;;26.67;11.10;;;0.60;82.10;;;;;;4999130;28;21331;-60
2022/12/17 16:11:54;;;;;;;31.50;11.90;;;0.60;82.60;;;;;;5024961;28;20792;-60
2022/12/17 16:14:22;;;;;;;25.23;10.93;;;0.60;82.30;;;;;;5015655;28;20485;-60
2022/12/17 16:16:48;;;;;;;46.03;10.60;;;0.60;82.60;;;;;;5013952;28;20472;-60
2022/12/17 16:19:15;;;;;;;31.97;11.70;;;0.60;82.40;;;;;;5028143;28;20479;-60
2022/12/17 16:21:42;;;;;;;56.17;16.80;;;0.60;82.70;;;;;;5017404;28;20483;-60
2022/12/17 16:24:10;;;;;;;29.10;12.50;;;0.50;82.10;;;;;;5031566;28;20484;-60
2022/12/17 16:26:37;;;;;;;58.60;20.50;;;0.40;81.80;;;;;;4994125;28;20572;-60
2022/12/17 16:29:04;;;;;;;40.77;14.87;;;0.20;81.90;;;;;;5019524;28;22515;-61
2022/12/17 16:31:32;;;;;;;42.90;14.77;;;0.00;82.40;;;;;;5036364;28;20713;-60
2022/12/17 16:33:59;;;;;;;38.17;13.80;;;-0.10;82.90;;;;;;5007551;28;20481;-60
2022/12/17 16:36:26;;;;;;;35.50;12.10;;;0.20;83.80;;;;;;5005583;28;20487;-60
2022/12/17 16:38:54;;;;;;;35.87;12.83;;;0.00;84.40;;;;;;5015739;28;20668;-60
2022/12/17 16:41:22;;;;;;;24.80;11.40;;;0.10;84.20;;;;;;5033702;28;21058;-60
2022/12/17 16:43:48;;;;;;;38.40;13.23;;;0.10;83.70;;;;;;5022340;28;21024;-59
2022/12/17 16:46:25;;;;;;;42.47;12.73;;;0.00;82.20;;;;;;5020709;28;20476;-59
2022/12/17 16:48:53;;;;;;;39.73;14.27;;;-0.20;82.20;;;;;;5001867;28;21880;-60
2022/12/17 16:51:23;;;;;;;37.30;13.40;;;-0.30;82.10;;;;;;5012554;28;20474;-60
2022/12/17 16:53:49;;;;;;;45.17;16.27;;;-0.50;81.80;;;;;;5002056;28;20496;-60
2022/12/17 16:56:18;;;;;;;39.10;14.10;;;-1.50;81.60;;;;;;5006792;28;20477;-60
2022/12/17 16:58:45;;;;;;;58.73;19.43;;;-0.80;82.10;;;;;;5004498;28;20495;-60
2022/12/17 17:01:12;;;;;;;36.87;14.17;;;-0.90;82.30;;;;;;5009669;28;20490;-60
2022/12/17 17:03:40;;;;;;;65.23;20.23;;;-1.10;83.30;;;;;;5017931;28;20488;-60
2022/12/17 17:06:09;;;;;;;43.27;13.13;;;-1.10;83.60;;;;;;5022583;28;20609;-60
2022/12/17 17:08:36;;;;;;;43.43;14.70;;;-1.10;84.20;;;;;;5022124;28;20502;-60
2022/12/17 17:11:11;;;;;;;36.87;12.67;;;-1.00;84.50;;;;;;5009819;28;20856;-60
2022/12/17 17:13:38;;;;;;;44.93;14.00;;;-1.00;84.50;;;;;;5023402;28;20478;-61
2022/12/17 17:16:05;;;;;;;35.23;14.23;;;-1.10;83.90;;;;;;5009852;28;21279;-60
2022/12/17 17:18:32;;;;;;;46.13;16.27;;;-1.00;84.10;;;;;;5039645;28;20478;-59
2022/12/17 17:21:26;;;;;;;40.90;14.10;;;-1.00;84.10;;;;;;5027813;28;20482;-60
2022/12/17 17:23:54;;;;;;;34.57;13.57;;;;;;;;;;5029790;28;20805;-60
2022/12/17 17:26:21;;;;;;;26.73;12.70;;;-1.20;83.80;;;;;;4997629;28;20508;-60
2022/12/17 17:28:49;;;;;;;40.00;13.40;;;-1.20;83.90;;;;;;5019245;28;20479;-60
2022/12/17 17:31:16;;;;;;;35.57;11.80;;;-1.20;84.30;;;;;;5010250;28;20576;-60
2022/12/17 17:33:47;;;;;;;49.23;14.20;;;-1.30;83.70;;;;;;5015654;28;20543;-60
2022/12/17 17:36:17;;;;;;;34.90;11.77;;;-1.40;83.40;;;;;;5006359;28;20984;-60
2022/12/17 17:38:45;;;;;;;48.07;15.77;;;-1.50;83.50;;;;;;5009923;28;20757;-60
2022/12/17 17:41:15;;;;;;;35.13;12.13;;;-1.40;83.40;;;;;;5009694;28;20539;-60
2022/12/17 17:43:43;;;;;;;63.13;16.90;;;-1.50;83.70;;;;;;5014979;28;20497;-60
2022/12/17 17:46:12;;;;;;;42.93;14.30;;;-1.50;84.00;;;;;;5001175;28;20479;-60
2022/12/17 17:48:39;;;;;;;67.37;19.17;;;-1.50;84.00;;;;;;5044826;28;20841;-60
2022/12/17 17:51:08;;;;;;;39.43;13.50;;;-1.70;83.60;;;;;;5006685;28;20480;-60
2022/12/17 17:53:35;;;;;;;69.87;19.90;;;-1.70;83.90;;;;;;5031157;28;20616;-60
2022/12/17 17:56:04;;;;;;;40.67;12.80;;;-1.80;84.00;;;;;;5019487;28;20860;-60
2022/12/17 17:58:32;;;;;;;50.40;16.57;;;-1.80;83.90;;;;;;5003839;28;21912;-60
2022/12/17 18:00:58;;;;;;;29.60;10.73;;;-1.80;84.30;;;;;;5008798;28;20473;-60
2022/12/17 18:03:27;;;;;;;36.17;13.00;;;-1.90;83.90;;;;;;5009016;28;20500;-60
2022/12/17 18:05:55;;;;;;;49.63;15.77;;;;;;;;;;5008484;28;20668;-60
2022/12/17 18:08:21;;;;;;;27.93;9.90;;;-2.10;84.20;;;;;;5014662;28;20493;-60
2022/12/17 18:10:56;;;;;;;35.37;12.90;;;-2.10;84.20;;;;;;5029192;28;20473;-60
2022/12/17 18:16:08;;;;;;;33.50;11.53;;;-2.10;84.10;;;;;;5020672;28;21098;-60
2022/12/17 18:18:35;;;;;;;57.47;16.90;;;-2.20;84.20;;;;;;5045688;28;20489;-59
2022/12/17 18:21:04;;;;;;;33.33;11.30;;;-2.20;84.50;;;;;;5014766;28;21270;-60
2022/12/17 18:23:31;;;;;;;40.57;13.90;;;-0.10;86.50;;;;;;5015249;28;20489;-60
2022/12/17 18:26:05;;;;;;;64.23;14.73;;;-2.20;84.80;;;;;;4997893;28;20904;-60
2022/12/17 18:28:33;;;;;;;46.60;12.83;;;-2.20;84.30;;;;;;5012618;28;20496;-60
2022/12/17 18:31:06;;;;;;;62.37;17.37;;;-0.40;86.10;;;;;;5011530;28;20472;-60
2022/12/17 18:33:33;;;;;;;45.83;13.60;;;-2.30;84.10;;;;;;5023686;28;20490;-60
2022/12/17 18:36:00;;;;;;;80.73;19.67;;;;;;;;;;5032944;28;20912;-59
2022/12/17 18:38:27;;;;;;;40.70;14.67;;;;;;;;;;5038585;28;20597;-60
2022/12/17 18:40:54;;;;;;;46.40;14.43;;;-2.40;84.40;;;;;;5013959;28;20477;-60
2022/12/17 18:43:22;;;;;;;42.07;13.73;;;-2.50;84.30;;;;;;5012792;28;20469;-60
2022/12/17 18:45:51;;;;;;;52.33;13.80;;;-2.50;84.60;;;;;;5023473;28;20555;-60
2022/12/17 18:48:18;;;;;;;62.93;18.60;;;-2.60;83.90;;;;;;5017478;28;20485;-59
2022/12/17 18:50:45;;;;;;;85.63;19.07;;;-2.60;84.20;;;;;;5009698;28;20495;-60
2022/12/17 18:53:12;;;;;;;39.87;12.80;;;-2.70;83.90;;;;;;5014688;28;20479;-60
2022/12/17 18:55:39;;;;;;;83.53;22.00;;;-2.70;83.70;;;;;;5018741;28;20477;-60
2022/12/17 18:58:07;;;;;;;54.10;14.40;;;-2.60;84.40;;;;;;5009520;28;20551;-60
2022/12/17 19:00:34;;;;;;;83.80;19.83;;;-2.70;84.10;;;;;;5008442;28;20469;-60
2022/12/17 19:03:04;;;;;;;54.03;16.93;;;-2.70;84.30;;;;;;5011498;28;20481;-60
2022/12/17 19:05:31;;;;;;;58.40;17.37;;;-2.70;84.50;;;;;;5014916;28;20489;-60
2022/12/17 19:07:58;;;;;;;49.97;13.37;;;-2.80;84.40;;;;;;5008771;28;20477;-60
2022/12/17 19:10:25;;;;;;;35.27;12.33;;;-2.90;84.80;;;;;;5020801;28;20479;-60
2022/12/17 19:12:51;;;;;;;46.90;15.23;;;-2.80;85.20;;;;;;5038473;28;21039;-60
2022/12/17 19:15:18;;;;;;;59.70;13.53;;;-2.80;85.20;;;;;;5034935;28;20475;-60
2022/12/17 19:17:49;;;;;;;46.70;14.30;;;-2.80;85.20;;;;;;5027582;28;20508;-59
2022/12/17 19:20:18;;;;;;;40.93;12.50;;;-4.10;84.20;;;;;;5007649;28;20491;-60
2022/12/17 19:22:44;;;;;;;56.67;15.30;;;-2.80;85.60;;;;;;5006400;28;20485;-59
2022/12/17 19:25:11;;;;;;;45.80;13.43;;;-2.80;85.30;;;;;;5009177;28;20486;-60
2022/12/17 19:27:38;;;;;;;82.40;20.03;;;-2.80;85.40;;;;;;5009224;28;20489;-60
2022/12/17 19:30:06;;;;;;;41.17;12.03;;;-2.90;85.30;;;;;;5009968;28;20494;-60
2022/12/17 19:32:32;;;;;;;40.70;12.50;;;-2.80;85.20;;;;;;5010644;28;20473;-60
2022/12/17 19:35:00;;;;;;;59.07;16.30;;;;;;;;;;4998941;28;20806;-60
2022/12/17 19:37:28;;;;;;;56.33;15.50;;;-2.90;84.20;;;;;;5014890;28;20484;-60
2022/12/17 19:39:54;;;;;;;63.93;19.83;;;-2.90;85.00;;;;;;5016825;28;20824;-60
2022/12/17 19:42:24;;;;;;;34.57;13.70;;;-2.90;84.90;;;;;;5010113;28;20478;-60
2022/12/17 19:44:51;;;;;;;44.07;14.10;;;-3.10;85.10;;;;;;5009874;28;20474;-60
2022/12/17 19:47:18;;;;;;;34.70;13.00;;;-3.10;84.70;;;;;;5015516;28;20476;-60
2022/12/17 19:49:45;;;;;;;73.73;22.03;;;-3.10;85.20;;;;;;5008665;28;20482;-60
2022/12/17 19:52:12;;;;;;;38.23;12.37;;;-3.10;85.60;;;;;;5030614;28;20853;-60
2022/12/17 19:54:40;;;;;;;90.87;20.93;;;-3.10;85.20;;;;;;5036481;28;20491;-60
2022/12/17 19:57:06;;;;;;;45.50;14.63;;;-3.20;84.80;;;;;;5015563;28;20881;-60
2022/12/17 19:59:33;;;;;;;56.53;16.67;;;-3.30;84.80;;;;;;5001681;28;21303;-60
2022/12/17 20:02:02;;;;;;;40.17;15.37;;;-2.80;85.60;;;;;;5035141;28;20483;-60
2022/12/17 20:04:29;;;;;;;48.97;16.07;;;-3.40;85.40;;;;;;5007978;28;20585;-59
2022/12/17 20:06:57;;;;;;;57.47;15.50;;;-3.50;85.40;;;;;;5010507;28;20577;-60
2022/12/17 20:09:24;;;;;;;27.43;11.43;;;-3.50;85.40;;;;;;4999725;28;20585;-59
2022/12/17 20:11:52;;;;;;;47.97;14.20;;;-3.50;86.10;;;;;;5010017;28;20480;-60
2022/12/17 20:14:20;;;;;;;56.00;15.27;;;;;;;;;;5010750;28;20489;-60
2022/12/17 20:16:48;;;;;;;62.83;17.43;;;-3.60;85.60;;;;;;5007036;28;20642;-60
2022/12/17 20:19:18;;;;;;;47.07;14.97;;;-3.50;85.80;;;;;;5007092;28;20561;-60
2022/12/17 20:21:44;;;;;;;68.13;23.37;;;-3.60;85.50;;;;;;5009101;28;21016;-60
2022/12/17 20:24:12;;;;;;;50.10;14.50;;;-3.70;85.10;;;;;;5008864;28;20481;-59
2022/12/17 20:26:40;;;;;;;64.40;21.20;;;-3.70;85.90;;;;;;5017447;28;20475;-60
2022/12/17 20:29:08;;;;;;;65.33;18.63;;;-3.60;85.60;;;;;;5017317;28;21092;-60
2022/12/17 20:31:36;;;;;;;84.90;24.80;;;-3.70;85.40;;;;;;5022787;28;20479;-60
2022/12/17 20:34:04;;;;;;;57.87;18.87;;;-3.80;85.10;;;;;;5011413;28;20588;-60
2022/12/17 20:36:31;;;;;;;47.60;16.37;;;-4.00;85.20;;;;;;5009073;28;20511;-60
2022/12/17 20:38:58;;;;;;;37.87;13.40;;;-4.00;86.20;;;;;;5014831;28;20476;-60
2022/12/17 20:41:26;;;;;;;49.40;12.83;;;-4.00;86.70;;;;;;5011553;28;20485;-59
2022/12/17 20:43:54;;;;;;;42.57;13.20;;;-3.90;87.10;;;;;;5017681;28;20585;-59
2022/12/17 20:46:23;;;;;;;41.30;15.17;;;-3.90;86.60;;;;;;5019658;28;20992;-60
2022/12/17 20:48:51;;;;;;;47.77;17.20;;;-3.80;86.30;;;;;;5001130;28;20969;-59
2022/12/17 20:51:20;;;;;;;38.83;14.67;;;-3.90;85.20;;;;;;5014208;28;20789;-59
2022/12/17 20:53:51;;;;;;;60.87;15.03;;;-4.00;85.60;;;;;;5020889;28;20480;-60
2022/12/17 20:56:19;;;;;;;46.87;16.30;;;-4.10;86.10;;;;;;5006628;28;20877;-60
2022/12/17 20:58:46;;;;;;;56.33;16.87;;;-4.10;86.30;;;;;;5009686;28;20488;-60
2022/12/17 21:01:15;;;;;;;68.27;16.87;;;-0.90;89.70;;;;;;5011038;28;20861;-59
2022/12/17 21:03:43;;;;;;;51.77;18.03;;;-1.00;89.50;;;;;;5009686;28;20493;-59
2022/12/17 21:06:12;;;;;;;41.23;14.90;;;-4.10;86.10;;;;;;5004927;28;21029;-60
2022/12/17 21:08:39;;;;;;;58.63;19.53;;;-4.20;85.30;;;;;;5009173;28;20477;-60
2022/12/17 21:11:07;;;;;;;41.70;12.57;;;;;;;;;;5013752;28;20473;-59
2022/12/17 21:13:34;;;;;;;73.83;19.73;;;;;;;;;;5011639;28;20489;-60
2022/12/17 21:16:03;;;;;;;59.47;19.20;;;-4.30;84.80;;;;;;5023031;28;20842;-60
2022/12/17 21:18:31;;;;;;;42.63;15.57;;;-4.30;85.30;;;;;;5017769;28;20780;-60
2022/12/17 21:21:00;;;;;;;48.77;16.30;;;;;;;;;;5014970;28;20482;-60
2022/12/17 21:23:28;;;;;;;58.83;16.57;;;-4.20;86.20;;;;;;5015361;28;20493;-60
2022/12/17 21:26:00;;;;;;;45.10;16.77;;;-4.20;86.00;;;;;;5020807;28;20478;-59
2022/12/17 21:28:26;;;;;;;43.57;13.97;;;-4.20;85.80;;;;;;5031133;28;20472;-60
2022/12/17 21:30:53;;;;;;;57.03;17.27;;;-4.20;85.80;;;;;;5029830;28;20480;-59
2022/12/17 21:33:20;;;;;;;66.90;17.70;;;-4.20;85.70;;;;;;5018989;28;20468;-60
2022/12/17 21:35:47;;;;;;;68.57;19.00;;;;;;;;;;5012150;28;20958;-59
2022/12/17 21:38:16;;;;;;;55.67;18.33;;;-4.20;86.50;;;;;;5005039;28;21008;-60
2022/12/17 21:40:43;;;;;;;71.00;20.93;;;-4.30;86.80;;;;;;5025960;28;21016;-60
2022/12/17 21:43:10;;;;;;;67.60;19.30;;;;;;;;;;5012632;28;20500;-60
2022/12/17 21:45:37;;;;;;;63.53;19.70;;;;;;;;;;5024343;28;20479;-60
2022/12/17 21:48:04;;;;;;;62.00;20.00;;;-4.40;87.70;;;;;;5024979;28;20485;-60
2022/12/17 21:50:31;;;;;;;58.97;20.07;;;-4.40;87.90;;;;;;5012384;28;21013;-59
2022/12/17 21:52:58;;;;;;;57.83;20.17;;;-4.40;87.80;;;;;;5014484;28;20981;-60
2022/12/17 21:55:27;;;;;;;52.40;17.40;;;-4.30;87.60;;;;;;5016045;28;20472;-60
2022/12/17 21:57:54;;;;;;;49.93;16.63;;;;;;;;;;5024797;28;20955;-60
2022/12/17 22:00:20;;;;;;;50.23;17.83;;;-4.10;87.40;;;;;;5010291;28;20981;-61
2022/12/17 22:02:47;;;;;;;62.77;21.80;;;-4.30;86.90;;;;;;5014385;28;20492;-60
2022/12/17 22:05:14;;;;;;;55.17;20.30;;;-2.40;88.70;;;;;;5012990;28;20908;-60
2022/12/17 22:07:41;;;;;;;61.00;19.30;;;-4.30;86.80;;;;;;5015834;28;20748;-59
2022/12/17 22:10:09;;;;;;;43.40;19.43;;;-4.30;86.60;;;;;;5007965;28;20476;-59
2022/12/17 22:15:22;;;;;;;38.60;18.97;;;-4.30;86.30;;;;;;5003426;28;20951;-60
2022/12/17 22:17:49;;;;;;;52.87;20.83;;;-4.30;86.20;;;;;;5022139;28;21281;-60
2022/12/17 22:20:16;;;;;;;60.73;17.47;;;-4.30;86.10;;;;;;5007907;28;20485;-59
2022/12/17 22:22:43;;;;;;;68.60;22.07;;;-4.30;85.50;;;;;;5015734;28;20480;-59
2022/12/17 22:25:11;;;;;;;53.67;19.53;;;-4.40;84.60;;;;;;5011038;28;20548;-60
2022/12/17 22:27:40;;;;;;;59.47;18.93;;;;;;;;;;5021701;28;20658;-61
2022/12/17 22:33:02;;;;;;;61.97;19.20;;;-5.00;86.30;;;;;;5011873;28;20484;-60
2022/12/17 22:35:33;;;;;;;53.13;17.03;;;-5.00;86.90;;;;;;5019451;28;20550;-60
2022/12/17 22:38:00;;;;;;;68.53;19.57;;;-5.00;87.00;;;;;;5006369;28;20556;-60
2022/12/17 22:40:27;;;;;;;42.90;18.30;;;-6.10;86.20;;;;;;5011244;28;20478;-60
2022/12/17 22:45:40;;;;;;;86.00;21.97;;;;;;;;;;5008890;28;20484;-59
2022/12/17 22:48:08;;;;;;;50.57;19.47;;;-4.80;87.80;;;;;;5011822;28;20488;-59
2022/12/17 22:50:35;;;;;;;59.13;21.70;;;-4.80;87.40;;;;;;5009199;28;20497;-60
2022/12/17 22:53:02;;;;;;;52.40;18.07;;;-4.80;86.00;;;;;;5011786;28;20842;-60
2022/12/17 22:55:29;;;;;;;37.03;16.07;;;-4.90;83.00;;;;;;5010796;28;20477;-60
2022/12/17 22:57:57;;;;;;;38.00;12.93;;;-5.00;83.50;;;;;;5015257;28;20477;-59
2022/12/17 23:00:26;;;;;;;35.30;15.70;;;-5.00;84.70;;;;;;5011224;28;20694;-60
2022/12/17 23:02:54;;;;;;;50.77;15.87;;;-5.10;85.80;;;;;;5022399;28;20538;-60
2022/12/17 23:05:21;;;;;;;46.53;12.60;;;-5.10;86.60;;;;;;5023566;28;20628;-60
2022/12/17 23:07:48;;;;;;;48.10;13.97;;;-5.20;87.60;;;;;;5016384;28;20936;-59
2022/12/17 23:10:15;;;;;;;43.43;16.40;;;-5.20;88.00;;;;;;5012508;28;20514;-59
2022/12/17 23:12:51;;;;;;;72.33;23.03;;;-5.30;88.50;;;;;;5014449;28;20481;-60
2022/12/17 23:15:22;;;;;;;42.90;17.17;;;-5.30;89.10;;;;;;5018900;28;20477;-59
2022/12/17 23:17:49;;;;;;;41.00;13.37;;;-5.30;89.00;;;;;;5012299;28;20500;-59
2022/12/17 23:20:16;;;;;;;44.30;15.73;;;-5.30;88.90;;;;;;5010529;28;20906;-59
2022/12/17 23:22:43;;;;;;;65.17;20.73;;;-5.30;88.80;;;;;;5011605;28;20492;-59
2022/12/17 23:25:10;;;;;;;62.57;16.83;;;-5.30;89.00;;;;;;5012040;28;20518;-60
2022/12/17 23:27:37;;;;;;;66.07;23.57;;;-5.40;89.10;;;;;;5010916;28;20568;-60
2022/12/17 23:30:08;;;;;;;48.33;17.83;;;-5.30;88.70;;;;;;5010329;28;20878;-60
2022/12/17 23:32:37;;;;;;;34.53;15.57;;;;;;;;;;5010871;28;21313;-59
2022/12/17 23:35:04;;;;;;;58.70;16.93;;;;;;;;;;5009925;28;20486;-59
2022/12/17 23:37:30;;;;;;;52.07;18.20;;;-5.40;88.40;;;;;;5012219;28;20482;-59
2022/12/17 23:39:57;;;;;;;53.87;15.47;;;-3.10;90.40;;;;;;5014231;28;20489;-59
2022/12/17 23:42:24;;;;;;;35.73;11.50;;;;;;;;;;5025534;28;20481;-59
2022/12/17 23:44:51;;;;;;;39.17;15.60;;;-5.60;89.30;;;;;;5022182;28;20489;-60
2022/12/17 23:47:18;;;;;;;25.57;9.17;;;-5.60;89.60;;;;;;5013492;28;20512;-59
2022/12/17 23:49:46;;;;;;;57.77;18.93;;;-5.60;89.70;;;;;;5013083;28;20664;-59
2022/12/17 23:52:12;;;;;;;34.57;13.20;;;-5.70;89.60;;;;;;5014802;28;20489;-60
2022/12/17 23:54:40;;;;;;;63.17;15.07;;;;;;;;;;5017109;28;20917;-59
2022/12/17 23:57:07;;;;;;;47.83;16.60;;;;;;;;;;5018662;28;20478;-60
2022/12/17 23:59:34;;;;;;;64.03;18.73;;;;;;;;;;5013268;28;20516;-59
